Time;durP1;ratioP1;P1;durP2;ratioP2;P2;SDS_P1;SDS_P2;PMS_P1;PMS_P2;Temp;Humidity;BMP_temperature;BMP_pressure;BME280_temperature;BME280_humidity;BME280_pressure;Samples;Min_cycle;Max_cycle;Signal;HPM_P1;HPM_P2
2023/01/30 00:01:15;;;;;;;36.57;21.73;;;4.30;99.90;;;;;;5108006;27;20195;-55
2023/01/30 00:03:43;;;;;;;37.07;22.33;;;4.30;99.90;;;;;;5090479;27;20276;-53
2023/01/30 00:06:10;;;;;;;37.67;21.50;;;4.30;99.90;;;;;;5115180;27;20193;-56
2023/01/30 00:08:37;;;;;;;31.40;18.57;;;4.30;99.90;;;;;;5110094;27;20197;-50
2023/01/30 00:11:06;;;;;;;36.03;20.10;;;4.30;99.90;;;;;;5102914;27;20194;-52
2023/01/30 00:13:33;;;;;;;34.23;20.30;;;4.30;99.90;;;;;;5114003;27;20569;-56
2023/01/30 00:16:01;;;;;;;38.50;21.47;;;4.40;99.90;;;;;;5093468;27;20221;-51
2023/01/30 00:18:27;;;;;;;38.23;21.60;;;4.40;99.90;;;;;;5079073;27;20734;-54
2023/01/30 00:20:58;;;;;;;35.80;21.20;;;4.40;99.90;;;;;;5119348;27;20201;-52
2023/01/30 00:23:27;;;;;;;34.87;20.67;;;4.40;99.90;;;;;;5100828;27;20662;-57
2023/01/30 00:25:54;;;;;;;39.77;22.50;;;4.50;99.90;;;;;;5098241;28;20221;-51
2023/01/30 00:28:20;;;;;;;37.13;20.53;;;4.50;99.90;;;;;;5104102;28;20557;-56
2023/01/30 00:30:48;;;;;;;35.53;20.43;;;4.50;99.90;;;;;;5084996;27;20658;-50
2023/01/30 00:33:17;;;;;;;39.40;20.60;;;4.50;99.90;;;;;;5084592;27;20212;-56
2023/01/30 00:35:44;;;;;;;39.60;20.97;;;4.50;99.90;;;;;;5099062;27;20216;-50
2023/01/30 00:38:11;;;;;;;36.03;21.10;;;4.50;99.90;;;;;;5102096;27;20251;-55
2023/01/30 00:40:39;;;;;;;42.20;22.00;;;4.50;99.90;;;;;;5105800;27;20208;-55
2023/01/30 00:48:40;;;;;;;38.57;20.30;;;4.60;99.90;;;;;;5090055;27;20288;-53
2023/01/30 00:51:07;;;;;;;38.43;21.17;;;4.60;99.90;;;;;;5098521;27;20888;-54
2023/01/30 00:53:34;;;;;;;32.70;18.20;;;4.70;99.90;;;;;;5103887;27;20198;-53
2023/01/30 00:56:00;;;;;;;34.37;19.17;;;4.70;99.90;;;;;;5099321;27;20905;-53
2023/01/30 00:58:27;;;;;;;36.07;18.93;;;4.70;99.90;;;;;;5104374;27;20220;-56
2023/01/30 01:00:54;;;;;;;37.27;20.50;;;4.70;99.90;;;;;;5096458;27;20197;-49
2023/01/30 01:03:21;;;;;;;36.10;20.87;;;4.80;99.90;;;;;;5088154;27;20288;-53
2023/01/30 01:05:50;;;;;;;40.50;23.87;;;4.80;99.90;;;;;;5114583;27;20578;-53
2023/01/30 01:08:17;;;;;;;36.17;19.60;;;4.80;99.90;;;;;;5105704;27;20188;-54
2023/01/30 01:10:44;;;;;;;35.37;20.57;;;4.80;99.90;;;;;;5102374;27;20197;-53
2023/01/30 01:13:11;;;;;;;35.13;20.60;;;4.80;99.90;;;;;;5102462;27;20955;-55
2023/01/30 01:15:40;;;;;;;33.13;18.53;;;4.90;99.90;;;;;;5104929;27;20300;-57
2023/01/30 01:18:06;;;;;;;31.37;18.40;;;4.90;99.90;;;;;;5070465;27;20226;-56
2023/01/30 01:20:33;;;;;;;32.90;18.97;;;4.90;99.90;;;;;;5105705;27;20454;-57
2023/01/30 01:23:01;;;;;;;35.43;19.93;;;4.90;99.90;;;;;;5094267;27;20706;-52
2023/01/30 01:25:28;;;;;;;34.20;20.90;;;4.90;99.90;;;;;;5103821;27;20260;-54
2023/01/30 01:27:55;;;;;;;32.27;20.33;;;4.90;99.90;;;;;;5102574;27;20276;-50
2023/01/30 01:30:21;;;;;;;38.80;21.13;;;5.00;99.90;;;;;;5122401;27;20203;-53
2023/01/30 01:32:48;;;;;;;36.87;19.10;;;5.00;99.90;;;;;;5108530;27;20212;-50
2023/01/30 01:35:15;;;;;;;35.20;18.43;;;5.00;99.90;;;;;;5082461;27;20205;-56
2023/01/30 01:37:42;;;;;;;36.17;19.27;;;5.00;99.90;;;;;;5105017;27;20218;-55
2023/01/30 01:43:02;;;;;;;35.57;18.33;;;5.10;99.90;;;;;;5099321;27;20212;-53
2023/01/30 01:45:31;;;;;;;29.07;17.60;;;5.00;99.90;;;;;;5103774;27;20720;-56
2023/01/30 01:48:03;;;;;;;30.03;20.00;;;5.10;99.90;;;;;;5092750;28;20576;-50
2023/01/30 01:50:38;;;;;;;28.50;17.10;;;5.10;99.90;;;;;;5081728;27;20296;-56
2023/01/30 01:53:06;;;;;;;29.00;15.50;;;5.10;99.90;;;;;;5110864;27;20188;-57
2023/01/30 01:55:35;;;;;;;33.07;18.57;;;5.10;99.90;;;;;;5102819;27;20217;-57
2023/01/30 01:58:07;;;;;;;30.57;16.33;;;5.10;99.90;;;;;;5099209;28;20221;-57
2023/01/30 02:00:35;;;;;;;32.27;18.80;;;5.10;99.90;;;;;;5104914;27;20726;-55
2023/01/30 02:03:05;;;;;;;33.33;18.93;;;5.20;99.90;;;;;;5100685;27;20791;-57
2023/01/30 02:05:36;;;;;;;28.60;17.97;;;5.20;99.90;;;;;;5076966;27;20214;-55
2023/01/30 02:08:08;;;;;;;26.90;17.77;;;5.20;99.90;;;;;;5094402;27;20271;-57
2023/01/30 02:10:43;;;;;;;30.40;18.40;;;5.20;99.90;;;;;;5123658;27;20192;-55
2023/01/30 02:13:10;;;;;;;30.03;17.77;;;5.20;99.90;;;;;;5120888;27;20202;-56
2023/01/30 02:15:37;;;;;;;24.83;14.80;;;5.30;99.90;;;;;;5124351;27;20223;-57
2023/01/30 02:18:05;;;;;;;24.93;15.80;;;5.30;99.90;;;;;;5107807;27;20209;-55
2023/01/30 02:20:52;;;;;;;27.40;16.90;;;5.30;99.90;;;;;;5091877;28;20198;-57
2023/01/30 02:23:42;;;;;;;25.53;15.40;;;5.30;99.90;;;;;;5105553;27;20222;-57
2023/01/30 02:26:41;;;;;;;24.47;15.27;;;5.30;99.90;;;;;;5099543;28;20205;-57
2023/01/30 02:29:54;;;;;;;23.87;15.60;;;5.40;99.90;;;;;;5061824;28;20201;-56
2023/01/30 02:32:32;;;;;;;24.50;15.90;;;5.30;99.90;;;;;;5065293;28;20209;-57
2023/01/30 02:35:04;;;;;;;27.23;15.47;;;5.40;99.90;;;;;;5092975;27;20229;-51
2023/01/30 02:37:45;;;;;;;25.77;15.07;;;5.40;99.90;;;;;;5088203;27;20302;-55
2023/01/30 02:40:24;;;;;;;24.50;15.30;;;5.40;99.90;;;;;;5103886;27;20813;-57
2023/01/30 02:43:02;;;;;;;23.50;14.63;;;5.40;99.90;;;;;;5097479;28;20692;-53
2023/01/30 02:45:34;;;;;;;21.83;14.33;;;5.40;99.90;;;;;;5102384;27;20576;-53
2023/01/30 02:48:04;;;;;;;18.50;13.30;;;5.50;99.90;;;;;;5098349;28;20205;-55
2023/01/30 02:50:35;;;;;;;21.17;13.00;;;5.50;99.90;;;;;;5103049;27;20561;-57
2023/01/30 02:53:03;;;;;;;19.53;12.90;;;5.50;99.90;;;;;;5067081;27;21710;-56
2023/01/30 02:55:30;;;;;;;20.27;13.10;;;5.60;99.90;;;;;;5106700;27;20218;-57
2023/01/30 02:57:57;;;;;;;18.57;12.83;;;5.60;99.90;;;;;;5112536;27;20303;-52
2023/01/30 03:00:37;;;;;;;22.07;12.23;;;5.60;99.90;;;;;;5122009;28;20332;-55
2023/01/30 03:03:19;;;;;;;22.70;13.77;;;5.60;99.90;;;;;;5106659;27;20196;-54
2023/01/30 03:06:05;;;;;;;16.80;11.60;;;5.60;99.90;;;;;;5103817;27;20225;-53
2023/01/30 03:08:41;;;;;;;17.97;11.60;;;5.70;99.90;;;;;;5104557;27;20565;-55
2023/01/30 03:11:09;;;;;;;17.77;11.93;;;5.70;99.90;;;;;;5085734;27;20295;-58
2023/01/30 03:13:48;;;;;;;15.97;10.80;;;5.70;99.90;;;;;;5121318;27;20287;-57
2023/01/30 03:16:21;;;;;;;16.93;10.30;;;5.70;99.90;;;;;;5124561;27;20192;-58
2023/01/30 03:18:49;;;;;;;17.23;11.03;;;5.70;99.90;;;;;;5099562;27;20748;-52
2023/01/30 03:21:17;;;;;;;16.47;11.43;;;5.80;99.90;;;;;;5096492;27;20190;-56
2023/01/30 03:23:45;;;;;;;14.97;9.33;;;5.80;99.90;;;;;;5086523;27;20672;-53
2023/01/30 03:26:16;;;;;;;16.20;10.80;;;5.80;99.90;;;;;;5079640;27;20196;-53
2023/01/30 03:28:46;;;;;;;14.10;9.77;;;5.80;99.90;;;;;;5099843;27;20287;-51
2023/01/30 03:31:13;;;;;;;13.53;10.67;;;5.80;99.90;;;;;;5099075;28;20182;-58
2023/01/30 03:33:43;;;;;;;13.50;10.93;;;5.80;99.90;;;;;;5106542;27;20208;-55
2023/01/30 03:36:12;;;;;;;17.87;10.37;;;5.80;99.90;;;;;;5104801;28;20947;-58
2023/01/30 03:38:40;;;;;;;13.00;9.37;;;5.90;99.90;;;;;;5101576;27;20707;-56
2023/01/30 03:41:06;;;;;;;13.83;9.77;;;5.90;99.90;;;;;;5089135;27;20901;-58
2023/01/30 03:43:34;;;;;;;11.97;8.67;;;5.90;99.90;;;;;;5110340;27;20321;-57
2023/01/30 03:46:03;;;;;;;13.10;8.80;;;5.90;99.90;;;;;;5121518;27;20219;-55
2023/01/30 03:48:30;;;;;;;14.40;9.10;;;5.90;99.90;;;;;;5125357;27;20295;-56
2023/01/30 03:50:57;;;;;;;12.70;8.40;;;5.90;99.90;;;;;;5122106;27;20196;-54
2023/01/30 03:53:25;;;;;;;11.83;8.73;;;6.00;99.90;;;;;;5111065;27;20218;-55
2023/01/30 03:55:53;;;;;;;14.07;8.40;;;5.90;99.90;;;;;;5081631;27;20217;-50
2023/01/30 03:58:25;;;;;;;12.23;7.63;;;5.90;99.90;;;;;;5113464;27;20258;-57
2023/01/30 04:00:52;;;;;;;12.17;8.57;;;5.90;99.90;;;;;;5095445;27;20220;-54
2023/01/30 04:03:19;;;;;;;15.10;8.17;;;6.00;99.90;;;;;;5100905;27;20197;-57
2023/01/30 04:05:46;;;;;;;15.07;8.97;;;6.00;99.90;;;;;;5104239;27;20232;-53
2023/01/30 04:08:13;;;;;;;5.80;4.13;;;6.00;99.90;;;;;;5097886;27;20181;-55
2023/01/30 04:10:41;;;;;;;7.20;4.43;;;5.90;99.90;;;;;;5095666;27;20206;-56
2023/01/30 04:13:07;;;;;;;3.70;2.50;;;5.80;99.90;;;;;;5073485;27;20328;-55
2023/01/30 04:15:34;;;;;;;4.30;1.67;;;5.60;99.90;;;;;;5107933;27;20221;-58
2023/01/30 04:18:16;;;;;;;2.53;1.53;;;5.50;99.90;;;;;;5103574;28;20209;-59
2023/01/30 04:21:09;;;;;;;4.07;1.20;;;5.40;99.90;;;;;;5096071;27;20292;-57
2023/01/30 04:23:38;;;;;;;5.10;1.43;;;5.30;99.90;;;;;;5105161;28;20297;-58
2023/01/30 04:26:08;;;;;;;4.77;1.17;;;5.30;99.90;;;;;;5100457;27;20240;-56
2023/01/30 04:28:38;;;;;;;3.80;1.70;;;5.30;99.90;;;;;;5078726;27;20890;-58
2023/01/30 04:31:05;;;;;;;4.37;1.10;;;5.30;99.90;;;;;;5117152;27;20257;-54
2023/01/30 04:33:44;;;;;;;5.13;1.23;;;5.30;99.90;;;;;;5123650;27;20219;-53
2023/01/30 04:36:13;;;;;;;2.40;0.97;;;5.30;99.90;;;;;;5122391;27;20197;-56
2023/01/30 04:38:42;;;;;;;3.07;1.30;;;5.30;99.90;;;;;;5108058;27;20692;-54
2023/01/30 04:41:10;;;;;;;6.73;1.17;;;5.30;99.90;;;;;;5090517;27;20298;-57
2023/01/30 04:43:40;;;;;;;6.17;1.07;;;5.30;99.90;;;;;;5088511;27;20216;-56
2023/01/30 04:46:27;;;;;;;2.67;0.77;;;5.30;99.90;;;;;;5095705;27;20300;-56
2023/01/30 04:48:55;;;;;;;2.87;1.40;;;5.40;99.90;;;;;;5098469;27;20541;-54
2023/01/30 04:51:22;;;;;;;6.40;1.40;;;5.30;99.90;;;;;;5106132;27;20679;-57
2023/01/30 04:53:49;;;;;;;4.50;0.93;;;5.40;99.90;;;;;;5102772;27;20209;-53
2023/01/30 04:56:17;;;;;;;4.33;1.37;;;5.40;99.90;;;;;;5094857;27;20202;-56
2023/01/30 04:58:45;;;;;;;4.10;1.00;;;5.40;99.90;;;;;;5089258;27;20219;-57
2023/01/30 05:01:16;;;;;;;6.77;1.60;;;5.40;99.90;;;;;;5098248;27;20673;-57
2023/01/30 05:03:43;;;;;;;5.33;1.40;;;5.40;99.90;;;;;;5085530;27;20198;-54
2023/01/30 05:06:10;;;;;;;3.77;0.93;;;5.40;99.90;;;;;;5113147;27;20202;-57
2023/01/30 05:08:37;;;;;;;3.10;1.17;;;5.40;99.90;;;;;;5097151;27;20194;-52
2023/01/30 05:11:04;;;;;;;5.50;1.33;;;5.40;99.90;;;;;;5107733;27;20202;-56
2023/01/30 05:13:32;;;;;;;6.07;1.40;;;5.50;99.90;;;;;;5080407;27;20574;-51
2023/01/30 05:16:02;;;;;;;5.90;1.50;;;5.50;99.90;;;;;;5102854;27;20813;-57
2023/01/30 05:18:29;;;;;;;9.80;1.57;;;5.50;99.90;;;;;;5099931;27;20220;-50
2023/01/30 05:21:03;;;;;;;3.97;1.17;;;5.50;99.90;;;;;;5097829;27;20201;-57
2023/01/30 05:23:31;;;;;;;8.37;1.87;;;5.50;99.90;;;;;;5102763;27;20203;-51
2023/01/30 05:25:58;;;;;;;8.63;2.17;;;5.60;99.90;;;;;;5115548;27;20858;-58
2023/01/30 05:28:25;;;;;;;7.93;2.23;;;5.50;99.90;;;;;;5090637;27;20289;-51
2023/01/30 05:30:53;;;;;;;3.70;1.87;;;5.60;99.90;;;;;;5083563;27;20205;-57
2023/01/30 05:33:20;;;;;;;4.00;1.60;;;5.60;99.90;;;;;;5092168;27;22364;-58
2023/01/30 05:35:47;;;;;;;11.27;2.13;;;5.60;99.90;;;;;;5113715;27;20224;-59
2023/01/30 05:38:14;;;;;;;8.83;2.23;;;5.60;99.90;;;;;;5102633;27;20185;-54
2023/01/30 05:40:41;;;;;;;6.83;1.37;;;5.60;99.90;;;;;;5100480;27;20817;-59
2023/01/30 05:43:09;;;;;;;11.60;2.10;;;5.60;99.90;;;;;;5105218;27;20194;-59
2023/01/30 05:45:35;;;;;;;11.23;2.37;;;5.60;99.90;;;;;;5084417;27;20690;-52
2023/01/30 05:48:03;;;;;;;9.27;1.90;;;5.60;99.90;;;;;;5102995;27;20677;-57
2023/01/30 05:50:31;;;;;;;9.63;1.97;;;5.60;99.90;;;;;;5108582;27;20565;-54
2023/01/30 05:52:58;;;;;;;7.97;2.30;;;5.60;99.90;;;;;;5116897;27;20264;-59
2023/01/30 05:55:25;;;;;;;11.07;2.33;;;5.50;99.90;;;;;;5106509;28;20259;-54
2023/01/30 05:57:52;;;;;;;9.00;1.70;;;5.50;99.90;;;;;;5108968;27;20200;-57
2023/01/30 06:00:20;;;;;;;7.27;1.63;;;5.50;99.90;;;;;;5074244;27;20220;-59
2023/01/30 06:02:47;;;;;;;14.27;2.20;;;5.50;99.90;;;;;;5083826;27;20924;-56
2023/01/30 06:05:15;;;;;;;7.97;1.77;;;5.50;99.90;;;;;;5100548;27;20426;-51
2023/01/30 06:07:42;;;;;;;7.40;2.20;;;5.40;99.90;;;;;;5105638;27;20204;-57
2023/01/30 06:10:10;;;;;;;8.60;1.70;;;5.40;99.90;;;;;;5095900;27;20217;-52
2023/01/30 06:12:37;;;;;;;7.83;1.60;;;5.40;99.90;;;;;;5098961;27;20190;-54
2023/01/30 06:15:04;;;;;;;19.63;2.70;;;5.40;99.90;;;;;;5089961;27;20217;-50
2023/01/30 06:17:31;;;;;;;15.03;2.43;;;5.30;99.90;;;;;;5077158;28;21013;-58
2023/01/30 06:19:58;;;;;;;10.67;2.30;;;5.30;99.90;;;;;;5100751;27;20217;-54
2023/01/30 06:22:26;;;;;;;14.63;2.70;;;5.30;99.90;;;;;;5101929;27;20194;-57
2023/01/30 06:24:53;;;;;;;7.67;1.53;;;5.30;99.90;;;;;;5105124;27;20266;-54
2023/01/30 06:27:20;;;;;;;6.23;1.63;;;5.30;99.90;;;;;;5100528;27;20204;-52
2023/01/30 06:29:46;;;;;;;10.10;1.87;;;5.30;99.90;;;;;;5103697;27;20196;-50
2023/01/30 06:32:13;;;;;;;16.10;2.47;;;5.20;99.90;;;;;;5081669;28;20208;-59
2023/01/30 06:34:40;;;;;;;14.73;2.33;;;5.20;99.90;;;;;;5090077;27;20221;-53
2023/01/30 06:37:07;;;;;;;11.60;1.80;;;5.20;99.90;;;;;;5099082;27;20211;-58
2023/01/30 06:39:35;;;;;;;9.73;2.50;;;5.20;99.90;;;;;;5108169;27;20684;-53
2023/01/30 06:42:01;;;;;;;8.90;2.30;;;5.20;99.90;;;;;;5102453;27;20188;-57
2023/01/30 06:44:28;;;;;;;10.93;2.03;;;5.20;99.90;;;;;;5101763;28;20255;-56
2023/01/30 06:46:56;;;;;;;13.30;2.20;;;5.20;99.90;;;;;;5067316;28;20208;-57
2023/01/30 06:49:22;;;;;;;17.33;2.07;;;5.20;99.90;;;;;;5100435;27;20216;-57
2023/01/30 06:51:49;;;;;;;10.87;2.20;;;5.20;99.90;;;;;;5091557;27;20198;-54
2023/01/30 06:54:15;;;;;;;10.33;2.10;;;5.20;99.90;;;;;;5101655;27;20213;-58
2023/01/30 06:56:43;;;;;;;8.27;1.63;;;5.20;99.90;;;;;;5097524;27;20205;-58
2023/01/30 06:59:10;;;;;;;9.47;1.60;;;5.20;99.90;;;;;;5107593;27;20217;-53
2023/01/30 07:01:37;;;;;;;10.97;1.93;;;5.20;99.90;;;;;;5095802;28;20197;-53
2023/01/30 07:04:04;;;;;;;7.20;2.10;;;5.20;99.90;;;;;;5076751;28;20292;-59
2023/01/30 07:06:31;;;;;;;10.37;1.67;;;5.20;99.90;;;;;;5095584;28;20197;-56
2023/01/30 07:08:58;;;;;;;11.50;2.03;;;5.20;99.90;;;;;;5098432;28;20205;-51
2023/01/30 07:11:25;;;;;;;13.27;3.03;;;5.20;99.90;;;;;;5113526;28;20328;-57
2023/01/30 07:13:53;;;;;;;9.40;1.30;;;5.20;99.90;;;;;;5099031;27;20603;-54
2023/01/30 07:16:27;;;;;;;8.77;2.40;;;5.20;99.90;;;;;;5092160;28;20200;-57
2023/01/30 07:18:56;;;;;;;7.73;2.03;;;5.20;99.90;;;;;;5079202;28;20258;-51
2023/01/30 07:21:22;;;;;;;10.53;2.07;;;5.10;99.90;;;;;;5091141;28;20196;-55
2023/01/30 07:23:50;;;;;;;9.53;1.90;;;5.10;99.90;;;;;;5095654;27;20285;-53
2023/01/30 07:26:16;;;;;;;7.87;1.83;;;5.20;99.90;;;;;;5105142;28;20189;-58
2023/01/30 07:28:43;;;;;;;7.13;1.53;;;5.20;99.90;;;;;;5115061;28;20664;-51
2023/01/30 07:31:11;;;;;;;9.37;2.20;;;5.20;99.90;;;;;;5110189;27;20197;-59
2023/01/30 07:33:38;;;;;;;12.90;2.47;;;5.20;99.90;;;;;;5102021;28;20274;-57
2023/01/30 07:36:05;;;;;;;12.93;2.17;;;5.20;99.90;;;;;;5081241;28;20219;-58
2023/01/30 07:38:32;;;;;;;8.93;1.80;;;5.20;99.90;;;;;;5093454;28;20676;-56
2023/01/30 07:40:59;;;;;;;16.50;2.17;;;5.30;99.90;;;;;;5108148;28;20223;-58
2023/01/30 07:43:26;;;;;;;17.87;3.43;;;5.30;99.90;;;;;;5103591;28;20684;-58
2023/01/30 07:46:14;;;;;;;18.10;2.67;;;5.30;99.90;;;;;;5102514;28;20212;-59
2023/01/30 07:49:02;;;;;;;14.30;2.27;;;5.40;99.90;;;;;;5095488;28;20211;-49
2023/01/30 07:51:29;;;;;;;14.57;2.63;;;5.30;99.90;;;;;;5089022;27;20200;-57
2023/01/30 07:53:56;;;;;;;11.33;2.50;;;5.40;99.90;;;;;;5101576;27;20200;-58
2023/01/30 07:56:23;;;;;;;15.23;3.07;;;5.40;99.90;;;;;;5111985;27;20200;-58
2023/01/30 07:58:50;;;;;;;10.73;2.40;;;5.30;99.90;;;;;;5106864;27;20620;-58
2023/01/30 08:01:18;;;;;;;17.53;2.93;;;5.40;99.90;;;;;;5104271;28;20218;-51
2023/01/30 08:03:45;;;;;;;18.37;3.40;;;5.40;99.90;;;;;;5101112;27;20216;-58
2023/01/30 08:06:13;;;;;;;27.07;3.63;;;5.40;99.90;;;;;;5088969;27;20197;-55
2023/01/30 08:08:40;;;;;;;17.90;3.90;;;5.30;99.90;;;;;;5083964;27;20228;-52
2023/01/30 08:11:07;;;;;;;19.33;3.57;;;5.30;99.90;;;;;;5102716;28;20213;-56
2023/01/30 08:13:35;;;;;;;16.57;2.67;;;5.30;99.90;;;;;;5105769;27;20657;-52
2023/01/30 08:16:02;;;;;;;17.63;2.80;;;5.20;99.90;;;;;;5098612;27;20224;-52
2023/01/30 08:18:30;;;;;;;14.77;2.87;;;5.00;99.90;;;;;;5092231;27;20276;-51
2023/01/30 08:20:57;;;;;;;14.63;3.87;;;5.10;99.90;;;;;;5073660;27;20218;-53
2023/01/30 08:23:24;;;;;;;16.50;3.83;;;5.10;99.90;;;;;;5096421;27;20247;-51
2023/01/30 08:25:54;;;;;;;13.37;2.93;;;5.10;99.90;;;;;;5103612;27;20320;-57
2023/01/30 08:28:21;;;;;;;18.10;3.43;;;5.10;99.90;;;;;;5100845;27;20209;-51
2023/01/30 08:30:48;;;;;;;17.53;3.40;;;5.10;99.90;;;;;;5107427;27;20196;-58
2023/01/30 08:33:16;;;;;;;19.63;4.13;;;5.10;99.90;;;;;;5102380;27;20228;-50
2023/01/30 08:35:44;;;;;;;23.27;3.53;;;5.10;99.90;;;;;;5081759;27;20230;-57
2023/01/30 08:38:11;;;;;;;26.33;4.40;;;5.20;99.90;;;;;;5095019;27;20201;-50
2023/01/30 08:40:38;;;;;;;23.20;3.33;;;5.30;99.90;;;;;;5094184;27;20232;-54
2023/01/30 08:43:07;;;;;;;22.13;4.40;;;5.30;99.90;;;;;;5105692;27;20208;-58
2023/01/30 08:45:34;;;;;;;30.57;4.73;;;5.30;99.90;;;;;;5101602;27;20224;-56
2023/01/30 08:48:01;;;;;;;26.43;4.90;;;5.30;99.90;;;;;;5101562;27;20199;-54
2023/01/30 08:50:30;;;;;;;31.10;4.70;;;5.40;99.90;;;;;;5077477;27;21803;-50
2023/01/30 08:52:57;;;;;;;16.93;3.77;;;5.40;99.90;;;;;;5094220;27;20205;-54
2023/01/30 08:55:25;;;;;;;24.13;4.43;;;5.50;99.90;;;;;;5100346;27;20637;-50
2023/01/30 08:57:51;;;;;;;18.07;3.37;;;5.60;99.90;;;;;;5107904;27;20257;-57
2023/01/30 09:00:19;;;;;;;23.60;3.93;;;5.60;99.90;;;;;;5111688;27;20831;-48
2023/01/30 09:02:46;;;;;;;23.87;4.87;;;5.70;99.90;;;;;;5099765;27;20197;-57
2023/01/30 09:05:14;;;;;;;29.63;4.10;;;5.80;99.90;;;;;;5093152;27;20282;-52
2023/01/30 09:07:41;;;;;;;27.33;4.60;;;5.80;99.90;;;;;;5079062;27;20192;-50
2023/01/30 09:10:10;;;;;;;18.90;3.43;;;5.80;99.90;;;;;;5087990;27;20205;-58
2023/01/30 09:12:37;;;;;;;23.23;4.47;;;5.80;99.90;;;;;;5099029;27;20227;-53
2023/01/30 09:15:04;;;;;;;27.07;4.80;;;5.80;99.90;;;;;;5100795;27;20250;-58
2023/01/30 09:17:31;;;;;;;30.00;4.77;;;5.80;99.90;;;;;;5103249;27;20223;-55
2023/01/30 09:19:58;;;;;;;22.23;4.17;;;5.90;99.90;;;;;;5096279;27;20240;-58
2023/01/30 09:22:24;;;;;;;15.90;3.53;;;5.90;99.90;;;;;;5086672;27;20279;-56
2023/01/30 09:24:51;;;;;;;22.87;4.10;;;6.00;99.90;;;;;;5099537;27;20223;-54
2023/01/30 09:27:19;;;;;;;25.30;4.37;;;6.10;99.90;;;;;;5097549;27;20306;-54
2023/01/30 09:29:47;;;;;;;23.90;3.93;;;6.20;99.90;;;;;;5097861;27;20275;-51
2023/01/30 09:32:13;;;;;;;20.87;4.17;;;6.30;99.90;;;;;;5102292;27;20619;-55
2023/01/30 09:34:40;;;;;;;20.37;3.73;;;6.30;99.90;;;;;;5100738;27;20206;-51
2023/01/30 09:37:07;;;;;;;23.50;4.40;;;6.30;99.90;;;;;;5086115;27;20301;-58
2023/01/30 09:39:34;;;;;;;15.30;4.00;;;6.40;99.90;;;;;;5108184;27;20554;-51
2023/01/30 09:42:20;;;;;;;22.50;3.60;;;6.40;99.90;;;;;;5093749;27;20205;-55
2023/01/30 09:45:03;;;;;;;15.97;3.50;;;6.40;99.90;;;;;;5096462;27;20618;-52
2023/01/30 09:47:39;;;;;;;25.10;4.50;;;6.40;99.90;;;;;;5103021;27;20208;-55
2023/01/30 09:50:23;;;;;;;19.90;3.93;;;6.40;99.90;;;;;;5115733;27;20185;-55
2023/01/30 09:52:55;;;;;;;20.70;4.00;;;6.50;99.90;;;;;;5078135;27;20620;-48
2023/01/30 09:55:26;;;;;;;17.13;3.50;;;6.50;99.90;;;;;;5108914;27;20231;-54
2023/01/30 09:57:53;;;;;;;19.90;3.60;;;6.40;99.90;;;;;;5101428;27;20897;-55
2023/01/30 10:00:28;;;;;;;21.60;4.10;;;6.30;99.90;;;;;;5102295;27;20212;-56
2023/01/30 10:03:04;;;;;;;18.77;4.17;;;6.20;99.90;;;;;;5101288;27;20196;-58
2023/01/30 10:05:38;;;;;;;19.17;2.97;;;6.10;99.90;;;;;;5101291;27;20301;-51
2023/01/30 10:08:31;;;;;;;18.33;3.30;;;6.10;99.90;;;;;;5082209;27;20214;-58
2023/01/30 10:11:04;;;;;;;10.33;2.47;;;6.00;99.90;;;;;;5095145;27;20273;-56
2023/01/30 10:13:53;;;;;;;15.27;3.43;;;6.00;99.90;;;;;;5097066;27;20202;-49
2023/01/30 10:16:27;;;;;;;10.00;2.67;;;5.90;99.90;;;;;;5094666;27;20540;-55
2023/01/30 10:19:13;;;;;;;17.47;2.43;;;5.90;99.90;;;;;;5100756;27;20192;-59
2023/01/30 10:21:47;;;;;;;14.73;3.07;;;5.90;99.90;;;;;;5106166;27;20212;-51
2023/01/30 10:24:28;;;;;;;13.97;3.60;;;6.00;99.90;;;;;;5080060;27;20228;-58
2023/01/30 10:26:56;;;;;;;15.30;2.80;;;6.00;99.90;;;;;;5093158;27;20881;-55
2023/01/30 10:29:29;;;;;;;9.23;2.63;;;5.90;99.90;;;;;;5086337;27;23269;-58
2023/01/30 10:32:02;;;;;;;12.63;2.27;;;5.90;99.90;;;;;;5094306;28;20209;-57
2023/01/30 10:34:34;;;;;;;11.27;2.37;;;5.90;99.90;;;;;;5098371;27;20301;-58
2023/01/30 10:37:07;;;;;;;14.57;1.97;;;6.00;99.90;;;;;;5099048;28;20561;-52
2023/01/30 10:39:41;;;;;;;11.90;2.83;;;6.10;99.90;;;;;;5077666;27;20315;-55
2023/01/30 10:42:11;;;;;;;15.03;2.33;;;6.20;99.90;;;;;;5097195;27;20208;-52
2023/01/30 10:44:41;;;;;;;14.17;2.87;;;6.30;99.90;;;;;;5096354;27;20229;-57
2023/01/30 10:47:39;;;;;;;14.63;3.20;;;6.40;99.90;;;;;;5085038;28;20203;-52
2023/01/30 10:50:15;;;;;;;12.87;3.33;;;6.50;99.90;;;;;;5092382;28;20205;-51
2023/01/30 10:52:46;;;;;;;10.70;2.77;;;6.40;99.90;;;;;;5101634;28;20651;-49
2023/01/30 10:55:23;;;;;;;20.80;3.90;;;6.40;99.90;;;;;;5070015;28;21315;-50
2023/01/30 10:57:56;;;;;;;13.70;3.87;;;6.30;99.90;;;;;;5098607;27;20220;-49
2023/01/30 11:00:29;;;;;;;5.70;1.97;;;6.20;99.90;;;;;;5088382;27;21587;-49
2023/01/30 11:03:09;;;;;;;9.07;1.73;;;5.90;99.90;;;;;;5108542;27;20216;-51
2023/01/30 11:05:45;;;;;;;9.93;2.53;;;5.60;99.90;;;;;;5102988;28;20243;-52
2023/01/30 11:08:19;;;;;;;6.63;1.30;;;5.30;99.90;;;;;;5092503;28;20894;-50
2023/01/30 11:10:47;;;;;;;2.97;1.00;;;5.00;99.90;;;;;;5090035;28;20196;-49
2023/01/30 11:13:18;;;;;;;5.47;0.90;;;4.80;99.90;;;;;;5081481;28;20199;-52
2023/01/30 11:15:47;;;;;;;3.37;0.60;;;4.70;99.90;;;;;;5103372;28;20227;-53
2023/01/30 11:18:47;;;;;;;0.97;0.30;;;4.70;99.90;;;;;;5098611;28;20236;-53
2023/01/30 11:21:20;;;;;;;3.90;0.80;;;4.60;99.90;;;;;;5110010;27;20212;-48
2023/01/30 11:23:46;;;;;;;2.07;0.63;;;4.60;99.90;;;;;;5096270;28;20209;-51
2023/01/30 11:26:21;;;;;;;1.70;0.70;;;4.60;99.90;;;;;;5086951;28;20304;-51
2023/01/30 11:28:48;;;;;;;4.57;0.70;;;4.60;99.90;;;;;;5090182;27;20625;-48
2023/01/30 11:31:21;;;;;;;6.23;0.80;;;4.60;99.90;;;;;;5097034;27;20212;-50
2023/01/30 11:33:59;;;;;;;6.60;1.13;;;4.60;99.90;;;;;;5110550;27;20256;-48
2023/01/30 11:36:28;;;;;;;4.10;1.10;;;4.60;99.90;;;;;;5099381;27;20196;-48
2023/01/30 11:38:58;;;;;;;8.83;1.47;;;4.60;99.90;;;;;;5104912;27;20733;-50
2023/01/30 11:41:25;;;;;;;5.17;1.07;;;4.60;99.90;;;;;;5091633;27;20224;-50
2023/01/30 11:44:00;;;;;;;6.10;1.83;;;4.60;99.90;;;;;;5088263;27;20208;-51
2023/01/30 11:46:31;;;;;;;8.00;1.63;;;4.80;99.90;;;;;;5102199;27;20197;-50
2023/01/30 11:49:02;;;;;;;7.17;1.83;;;4.80;99.90;;;;;;5107794;27;20212;-52
2023/01/30 11:51:30;;;;;;;11.60;1.80;;;4.90;99.90;;;;;;5108998;27;20223;-50
2023/01/30 11:53:59;;;;;;;6.00;1.53;;;5.00;99.90;;;;;;5099969;27;20205;-52
2023/01/30 11:56:33;;;;;;;14.67;2.27;;;5.10;99.90;;;;;;5095350;27;20216;-52
2023/01/30 11:59:04;;;;;;;16.97;2.33;;;5.20;99.90;;;;;;5086767;27;20204;-51
2023/01/30 12:01:33;;;;;;;10.37;2.23;;;5.20;99.90;;;;;;5098758;28;20289;-52
2023/01/30 12:04:08;;;;;;;14.67;2.03;;;5.30;99.90;;;;;;5101171;27;20681;-52
2023/01/30 12:06:37;;;;;;;18.00;2.17;;;5.40;99.90;;;;;;5098859;27;20202;-53
2023/01/30 12:09:05;;;;;;;11.67;2.20;;;5.50;99.90;;;;;;5102042;27;20204;-53
2023/01/30 12:11:50;;;;;;;16.03;2.23;;;5.60;99.90;;;;;;5090103;27;20201;-49
2023/01/30 12:14:34;;;;;;;15.33;2.33;;;5.60;99.90;;;;;;5087214;27;20622;-53
2023/01/30 12:17:10;;;;;;;14.30;1.90;;;5.60;99.90;;;;;;5100652;27;20201;-52
2023/01/30 12:19:57;;;;;;;7.67;1.47;;;5.50;99.90;;;;;;5095637;27;21498;-50
2023/01/30 12:22:35;;;;;;;6.03;2.30;;;5.40;99.90;;;;;;5096166;27;20224;-47
2023/01/30 12:25:12;;;;;;;7.87;1.40;;;5.20;99.90;;;;;;5095395;27;20224;-50
2023/01/30 12:27:50;;;;;;;3.80;1.10;;;5.00;99.90;;;;;;5096710;27;20196;-49
2023/01/30 12:30:24;;;;;;;1.17;0.33;;;4.50;99.90;;;;;;5083036;27;20511;-47
2023/01/30 12:32:54;;;;;;;3.57;0.90;;;4.20;99.90;;;;;;5101504;27;20201;-51
2023/01/30 12:35:29;;;;;;;6.93;1.20;;;4.10;99.90;;;;;;5094598;27;20232;-50
2023/01/30 12:38:04;;;;;;;1.13;0.50;;;4.10;99.90;;;;;;5093657;27;20267;-52
2023/01/30 12:40:41;;;;;;;6.83;1.30;;;4.10;99.90;;;;;;5099459;27;20209;-51
2023/01/30 12:43:30;;;;;;;10.57;1.10;;;4.10;99.90;;;;;;5086012;27;20928;-54
2023/01/30 12:46:11;;;;;;;5.43;1.33;;;4.10;99.90;;;;;;5078677;27;20220;-53
2023/01/30 12:49:06;;;;;;;8.03;1.57;;;4.30;99.90;;;;;;5098711;27;20242;-52
2023/01/30 12:51:50;;;;;;;12.97;2.77;;;4.50;99.90;;;;;;5107624;27;20209;-49
2023/01/30 12:54:29;;;;;;;12.40;1.77;;;4.60;99.90;;;;;;5107214;27;20296;-52
2023/01/30 12:57:27;;;;;;;12.17;2.13;;;4.80;99.90;;;;;;5092031;27;20233;-49
2023/01/30 13:00:10;;;;;;;13.83;2.23;;;4.90;99.90;;;;;;5101940;27;20204;-49
2023/01/30 13:02:48;;;;;;;11.33;2.60;;;5.10;99.90;;;;;;5079803;27;20624;-51
2023/01/30 13:05:30;;;;;;;18.73;2.47;;;5.20;99.90;;;;;;5100350;27;20290;-52
2023/01/30 13:08:10;;;;;;;11.37;2.70;;;5.30;99.90;;;;;;5106839;27;20794;-50
2023/01/30 13:10:44;;;;;;;8.03;2.43;;;5.50;99.90;;;;;;5112548;27;20201;-50
2023/01/30 13:13:17;;;;;;;17.83;3.43;;;5.60;99.90;;;;;;5090362;28;20189;-51
2023/01/30 13:15:52;;;;;;;13.83;2.70;;;5.60;99.90;;;;;;5107451;27;20209;-51